createdAt,value
2023-04-12T04:00:28.264Z,8.86
2023-04-12T04:05:28.192Z,9.09
2023-04-12T04:10:28.153Z,8.95
2023-04-12T04:15:35.203Z,9.06
2023-04-12T04:20:28.100Z,9.05
2023-04-12T04:25:27.984Z,9.27
2023-04-12T04:30:27.935Z,9.24
2023-04-12T04:35:27.911Z,9.29
2023-04-12T04:40:27.819Z,9.45
2023-04-12T04:45:27.862Z,9.39
2023-04-12T04:50:27.717Z,9.39
2023-04-12T04:55:27.692Z,9.32
2023-04-12T05:00:27.613Z,9.35
2023-04-12T05:05:27.561Z,9.32
2023-04-12T05:10:27.515Z,9.24
2023-04-12T05:15:27.488Z,9.23
2023-04-12T05:20:27.434Z,9.21
2023-04-12T05:25:27.344Z,9.19
2023-04-12T05:30:27.308Z,9.17
2023-04-12T05:35:27.275Z,9.19
2023-04-12T05:40:27.183Z,9.19
2023-04-12T05:45:27.141Z,9.20
2023-04-12T05:50:27.091Z,9.28
2023-04-12T05:55:27.092Z,9.36
2023-04-12T06:00:26.966Z,9.27
2023-04-12T06:05:26.989Z,9.30
2023-04-12T06:10:26.889Z,9.16
2023-04-12T06:15:26.917Z,9.21
2023-04-12T06:20:26.785Z,9.17
2023-04-12T06:25:26.731Z,9.22
2023-04-12T06:30:26.712Z,9.34
2023-04-12T06:35:26.616Z,9.30
2023-04-12T06:40:26.625Z,9.33
2023-04-12T06:45:26.535Z,9.35
2023-04-12T06:50:26.607Z,9.57
2023-04-12T06:55:26.446Z,9.69
2023-04-12T07:00:26.362Z,9.58
2023-04-12T07:05:26.290Z,9.80
2023-04-12T07:10:26.267Z,10.02
2023-04-12T07:15:26.192Z,9.97
2023-04-12T07:20:26.206Z,9.72
2023-04-12T07:25:26.069Z,10.02
2023-04-12T07:30:26.213Z,10.07
2023-04-12T07:35:25.995Z,10.07
2023-04-12T07:40:25.928Z,9.99
2023-04-12T07:45:25.840Z,10.40
2023-04-12T07:50:25.824Z,10.39
2023-04-12T07:55:25.835Z,10.52
2023-04-12T08:00:25.682Z,10.74
2023-04-12T08:05:25.664Z,10.63
2023-04-12T08:10:25.585Z,10.50
2023-04-12T08:15:25.591Z,10.39
2023-04-12T08:20:25.496Z,10.47
2023-04-12T08:25:25.415Z,10.69
2023-04-12T08:30:25.363Z,10.83
2023-04-12T08:35:25.349Z,10.62
2023-04-12T08:40:25.235Z,10.97
2023-04-12T08:45:25.197Z,11.14
2023-04-12T08:50:25.150Z,11.44
2023-04-12T08:55:25.242Z,11.48
2023-04-12T09:00:25.047Z,11.61
2023-04-12T09:05:25.123Z,11.37
2023-04-12T09:10:24.916Z,11.49
2023-04-12T09:15:25.063Z,11.49
2023-04-12T09:20:24.974Z,11.63
2023-04-12T09:25:24.811Z,11.62
2023-04-12T09:30:24.729Z,11.61
2023-04-12T09:35:24.900Z,11.62
2023-04-12T09:40:24.642Z,11.89
2023-04-12T09:45:24.550Z,12.16
2023-04-12T09:50:24.518Z,12.03
2023-04-12T09:55:24.442Z,12.05
2023-04-12T10:00:24.365Z,12.00
2023-04-12T10:05:24.701Z,12.53
2023-04-12T10:10:24.246Z,12.97
2023-04-12T10:15:24.236Z,13.10
2023-04-12T10:20:27.081Z,13.17
2023-04-12T10:25:24.129Z,12.94
2023-04-12T10:30:24.107Z,13.76
2023-04-12T10:35:24.262Z,13.68
2023-04-12T10:40:23.945Z,13.23
2023-04-12T10:45:23.869Z,12.99
2023-04-12T10:50:23.852Z,12.92
2023-04-12T10:55:23.808Z,12.97
2023-04-12T11:00:23.760Z,13.00
2023-04-12T11:05:23.723Z,11.93
2023-04-12T11:10:23.605Z,11.58
2023-04-12T11:15:23.610Z,11.68
2023-04-12T11:20:23.522Z,12.23
2023-04-12T11:25:23.434Z,13.03
2023-04-12T11:30:23.388Z,13.60
2023-04-12T11:35:23.386Z,14.40
2023-04-12T11:40:23.346Z,14.95
2023-04-12T11:45:23.233Z,15.22
2023-04-12T11:50:23.186Z,15.22
2023-04-12T11:55:23.134Z,14.14
2023-04-12T12:00:23.030Z,14.28
2023-04-12T12:05:23.218Z,14.24
2023-04-12T12:10:41.532Z,14.47
2023-04-12T12:15:23.933Z,14.94
2023-04-12T12:20:22.841Z,14.82
2023-04-12T12:25:22.790Z,14.73
2023-04-12T12:30:22.728Z,14.53
2023-04-12T12:35:22.723Z,14.71
2023-04-12T12:40:22.645Z,15.19
2023-04-12T12:45:22.593Z,15.43
2023-04-12T12:50:24.617Z,15.75
2023-04-12T12:55:22.485Z,15.09
2023-04-12T13:00:22.430Z,15.00
2023-04-12T13:05:22.504Z,15.68
2023-04-12T13:10:22.319Z,15.48
2023-04-12T13:15:24.205Z,15.47
2023-04-12T13:20:22.229Z,16.10
2023-04-12T13:25:22.181Z,15.77
2023-04-12T13:30:22.083Z,14.97
2023-04-12T13:35:22.047Z,15.63
2023-04-12T13:40:21.966Z,15.33
2023-04-12T13:45:21.930Z,15.34
2023-04-12T13:50:21.867Z,15.48
2023-04-12T13:55:21.846Z,15.67
2023-04-12T14:00:21.795Z,15.64
2023-04-12T14:05:21.702Z,14.81
2023-04-12T14:10:21.655Z,14.39
2023-04-12T14:15:21.639Z,14.27
2023-04-12T14:20:21.567Z,14.17
2023-04-12T14:25:21.552Z,14.48
2023-04-12T14:30:21.434Z,13.88
2023-04-12T14:35:21.438Z,12.16
2023-04-12T14:40:21.358Z,11.49
2023-04-12T14:45:21.281Z,11.21
2023-04-12T14:50:21.201Z,11.15
2023-04-12T14:55:21.348Z,11.75
2023-04-12T15:00:21.120Z,13.07
2023-04-12T15:05:21.063Z,13.27
2023-04-12T15:10:20.990Z,12.89
2023-04-12T15:15:20.982Z,12.88
2023-04-12T15:20:20.900Z,12.83
2023-04-12T15:25:20.814Z,12.35
2023-04-12T15:30:20.791Z,12.73
2023-04-12T15:35:26.542Z,12.62
2023-04-12T15:40:21.679Z,12.51
2023-04-12T15:45:20.598Z,12.27
2023-04-12T15:50:20.575Z,11.95
2023-04-12T15:55:20.504Z,11.98
2023-04-12T16:00:20.441Z,11.83
2023-04-12T16:05:20.402Z,11.62
2023-04-12T16:10:20.337Z,11.27
2023-04-12T16:15:20.327Z,11.15
2023-04-12T16:20:27.249Z,11.09
2023-04-12T16:25:20.168Z,10.86
2023-04-12T16:30:20.260Z,10.91
2023-04-12T16:35:20.078Z,10.98
2023-04-12T16:40:20.021Z,10.94
2023-04-12T16:45:19.958Z,11.14
2023-04-12T16:50:20.960Z,11.41
2023-04-12T16:55:19.963Z,11.81
2023-04-12T17:00:19.798Z,11.49
2023-04-12T17:05:19.785Z,11.62
2023-04-12T17:10:19.664Z,11.79
2023-04-12T17:15:19.631Z,11.53
2023-04-12T17:20:19.553Z,11.55
2023-04-12T17:25:21.199Z,11.62
2023-04-12T17:30:19.447Z,11.53
2023-04-12T17:35:19.403Z,11.55
2023-04-12T17:40:19.330Z,11.41
2023-04-12T17:45:19.292Z,11.15
2023-04-12T17:50:19.217Z,11.08
2023-04-12T17:55:19.189Z,10.99
2023-04-12T18:00:19.126Z,10.91
2023-04-12T18:05:19.055Z,10.67
2023-04-12T18:10:21.357Z,10.35
2023-04-12T18:15:18.960Z,10.16
2023-04-12T18:20:18.904Z,10.04
2023-04-12T18:25:18.843Z,9.95
2023-04-12T18:30:18.777Z,9.85
2023-04-12T18:35:18.758Z,9.80
2023-04-12T18:40:18.698Z,9.78
2023-04-12T18:45:18.610Z,9.71
2023-04-12T18:50:18.571Z,9.70
2023-04-12T18:55:18.584Z,9.68
2023-04-12T19:00:18.485Z,9.59
2023-04-12T19:05:18.418Z,9.55
2023-04-12T19:10:18.413Z,9.57
2023-04-12T19:15:18.373Z,9.70
2023-04-12T19:20:18.228Z,9.77
2023-04-12T19:25:19.723Z,9.89
2023-04-12T19:30:18.151Z,9.96
2023-04-12T19:35:18.088Z,9.94
2023-04-12T19:40:18.029Z,9.21
2023-04-12T19:45:17.982Z,8.35
2023-04-12T19:50:17.942Z,8.18
2023-04-12T19:55:17.992Z,7.82
2023-04-12T20:00:17.805Z,7.61
2023-04-12T20:05:17.771Z,7.63
2023-04-12T20:10:17.699Z,7.43
2023-04-12T20:15:17.696Z,7.23
2023-04-12T20:20:17.615Z,7.36
2023-04-12T20:25:17.534Z,7.39
2023-04-12T20:30:17.494Z,7.50
2023-04-12T20:35:17.462Z,7.49
2023-04-12T20:40:17.391Z,7.54
2023-04-12T20:45:17.329Z,7.63
2023-04-12T20:50:17.264Z,7.46
2023-04-12T20:55:17.242Z,7.28
2023-04-12T21:00:17.177Z,7.03
2023-04-12T21:05:17.249Z,7.03
2023-04-12T21:10:17.057Z,6.99
2023-04-12T21:15:17.022Z,7.17
2023-04-12T21:20:16.957Z,7.65
2023-04-12T21:25:17.084Z,8.03
2023-04-12T21:30:16.852Z,8.51
2023-04-12T21:35:16.810Z,8.79
2023-04-12T21:40:16.744Z,8.69
2023-04-12T21:45:16.689Z,8.65
2023-04-12T21:50:16.649Z,8.64
2023-04-12T21:55:16.615Z,8.67
2023-04-12T22:00:16.519Z,8.49
2023-04-12T22:05:16.479Z,8.42
2023-04-12T22:10:16.444Z,8.45
2023-04-12T22:15:16.381Z,8.47
2023-04-12T22:20:22.807Z,8.40
2023-04-12T22:25:16.283Z,8.28
2023-04-12T22:30:16.282Z,8.15
2023-04-12T22:35:16.188Z,8.09
2023-04-12T22:40:16.119Z,8.05
2023-04-12T22:45:16.088Z,7.99
2023-04-12T22:50:16.119Z,7.93
2023-04-12T22:55:15.995Z,7.87
2023-04-12T23:00:17.055Z,7.88
2023-04-12T23:05:15.874Z,7.86
2023-04-12T23:10:15.763Z,7.91
2023-04-12T23:15:15.741Z,7.87
2023-04-12T23:20:15.719Z,7.85
2023-04-12T23:25:15.621Z,7.97
